createdAt,value
2019-02-06T00:02:18.112Z,-1.03
2019-02-06T00:04:46.869Z,-1.05
2019-02-06T00:07:15.789Z,-1.06
2019-02-06T00:09:44.551Z,-0.98
2019-02-06T00:12:13.319Z,-1.06
2019-02-06T00:14:42.353Z,-0.99
2019-02-06T00:17:11.142Z,-0.93
2019-02-06T00:19:39.871Z,-1.04
2019-02-06T00:22:08.670Z,-1.15
2019-02-06T00:24:37.471Z,-1.14
2019-02-06T00:27:06.199Z,-1.10
2019-02-06T00:29:34.996Z,-1.04
2019-02-06T00:32:04.512Z,-0.88
2019-02-06T00:34:33.269Z,-1.03
2019-02-06T00:37:02.070Z,-1.11
2019-02-06T00:39:30.792Z,-1.16
2019-02-06T00:41:59.520Z,-1.27
2019-02-06T00:44:28.230Z,-1.15
2019-02-06T00:46:57.030Z,-1.02
2019-02-06T00:49:37.149Z,-1.02
2019-02-06T00:52:05.950Z,-0.94
2019-02-06T00:54:34.752Z,-0.94
2019-02-06T00:57:03.594Z,-0.98
2019-02-06T00:59:32.670Z,-0.80
2019-02-06T01:02:01.471Z,-0.86
2019-02-06T01:04:30.231Z,-0.73
2019-02-06T01:06:59.030Z,-0.73
2019-02-06T01:09:27.777Z,-0.75
2019-02-06T01:11:56.513Z,-0.71
2019-02-06T01:14:25.270Z,-0.75
2019-02-06T01:16:54.029Z,-0.77
2019-02-06T01:19:22.791Z,-0.81
2019-02-06T01:21:51.512Z,-0.81
2019-02-06T01:24:20.271Z,-0.76
2019-02-06T01:26:48.950Z,-0.62
2019-02-06T01:29:17.713Z,-0.61
2019-02-06T01:31:46.885Z,-0.65
2019-02-06T01:34:15.631Z,-0.64
2019-02-06T01:36:44.349Z,-0.60
2019-02-06T01:39:13.590Z,-0.56
2019-02-06T01:41:42.349Z,-0.59
2019-02-06T01:44:11.111Z,-0.53
2019-02-06T01:46:39.991Z,-0.52
2019-02-06T01:49:08.951Z,-0.56
2019-02-06T01:51:37.713Z,-0.50
2019-02-06T01:54:06.470Z,-0.57
2019-02-06T01:56:35.273Z,-0.56
2019-02-06T01:59:04.070Z,-0.58
2019-02-06T02:01:32.871Z,-0.58
2019-02-06T02:04:01.750Z,-0.54
2019-02-06T02:06:30.510Z,-0.54
2019-02-06T02:09:01.071Z,-0.48
2019-02-06T02:11:29.909Z,-0.35
2019-02-06T02:13:58.672Z,-0.46
2019-02-06T02:16:27.391Z,-0.49
2019-02-06T02:18:56.109Z,-0.50
2019-02-06T02:21:24.989Z,-0.42
2019-02-06T02:23:53.754Z,-0.45
2019-02-06T02:26:22.471Z,-0.40
2019-02-06T02:28:51.309Z,-0.48
2019-02-06T02:31:20.069Z,-0.43
2019-02-06T02:33:48.830Z,-0.41
2019-02-06T02:36:17.990Z,-0.48
2019-02-06T02:38:46.713Z,-0.52
2019-02-06T02:41:15.440Z,-0.51
2019-02-06T02:43:44.189Z,-0.41
2019-02-06T02:46:12.951Z,-0.46
2019-02-06T02:48:41.672Z,-0.45
2019-02-06T02:51:10.710Z,-0.59
2019-02-06T02:53:39.511Z,-0.48
2019-02-06T02:56:08.270Z,-0.56
2019-02-06T02:58:37.001Z,-0.61
2019-02-06T03:01:16.157Z,-0.65
2019-02-06T03:03:46.472Z,-0.56
2019-02-06T03:06:27.258Z,-0.72
2019-02-06T03:08:45.742Z,-0.63
2019-02-06T03:11:14.434Z,-0.48
2019-02-06T03:13:43.233Z,-0.51
2019-02-06T03:16:11.990Z,-0.54
2019-02-06T03:18:40.831Z,-0.47
2019-02-06T03:21:09.791Z,-0.58
2019-02-06T03:23:38.680Z,-0.58
2019-02-06T03:26:07.430Z,-0.55
2019-02-06T03:28:36.192Z,-0.45
2019-02-06T03:31:04.994Z,-0.38
2019-02-06T03:33:33.902Z,-0.53
2019-02-06T03:36:03.031Z,-0.34
2019-02-06T03:38:31.740Z,-0.37
2019-02-06T03:41:00.595Z,-0.38
2019-02-06T03:43:29.232Z,-0.55
2019-02-06T03:45:57.913Z,-0.55
2019-02-06T03:48:26.543Z,-0.53
2019-02-06T03:50:55.218Z,-0.50
2019-02-06T03:53:24.235Z,-0.41
2019-02-06T03:55:52.892Z,-0.46
2019-02-06T03:58:21.548Z,-0.48
2019-02-06T04:00:50.343Z,-0.42
2019-02-06T04:03:18.971Z,-0.35
2019-02-06T04:05:47.627Z,-0.37
2019-02-06T04:08:16.419Z,-0.32
2019-02-06T04:10:45.146Z,-0.32
2019-02-06T04:13:13.893Z,-0.25
2019-02-06T04:15:42.736Z,-0.48
2019-02-06T04:18:11.418Z,-0.36
2019-02-06T04:20:40.080Z,-0.41
2019-02-06T04:23:08.831Z,-0.53
2019-02-06T04:25:37.532Z,-0.40
2019-02-06T04:28:06.220Z,-0.34
2019-02-06T04:30:34.866Z,-0.32
2019-02-06T04:33:03.581Z,-0.50
2019-02-06T04:35:32.223Z,-0.37
2019-02-06T04:38:00.857Z,-0.29
2019-02-06T04:40:29.823Z,-0.36
2019-02-06T04:42:58.474Z,-0.44
2019-02-06T04:45:27.463Z,-0.46
2019-02-06T04:47:56.166Z,-0.30
2019-02-06T04:50:24.848Z,-0.31
2019-02-06T04:52:53.486Z,-0.22
2019-02-06T04:55:22.195Z,-0.25
2019-02-06T04:57:51.070Z,-0.38
2019-02-06T05:00:27.178Z,-0.40
2019-02-06T05:02:55.894Z,-0.47
2019-02-06T05:05:24.528Z,-0.46
2019-02-06T05:07:53.198Z,-0.59
2019-02-06T05:10:21.908Z,-0.40
2019-02-06T05:12:50.553Z,-0.45
2019-02-06T05:15:19.213Z,-0.39
2019-02-06T05:17:47.892Z,-0.39
2019-02-06T05:20:32.031Z,-0.40
2019-02-06T05:23:00.663Z,-0.41
2019-02-06T05:25:29.581Z,-0.36
2019-02-06T05:27:58.258Z,-0.44
2019-02-06T05:30:26.935Z,-0.38
2019-02-06T05:32:55.688Z,-0.34
2019-02-06T05:35:24.330Z,-0.38
2019-02-06T05:37:53.004Z,-0.42
2019-02-06T05:40:21.726Z,-0.46
2019-02-06T05:42:52.590Z,-0.48
2019-02-06T05:45:20.790Z,-0.41
2019-02-06T05:47:49.570Z,-0.27
2019-02-06T05:50:19.120Z,-0.26
2019-02-06T05:52:47.763Z,-0.28
2019-02-06T05:55:17.549Z,-0.41
2019-02-06T05:57:46.762Z,-0.15
2019-02-06T06:00:25.411Z,-0.28
2019-02-06T06:02:54.095Z,-0.33
2019-02-06T06:05:22.738Z,-0.33
2019-02-06T06:07:51.420Z,-0.31
2019-02-06T06:10:20.245Z,-0.37
2019-02-06T06:12:48.919Z,-0.37
2019-02-06T06:15:19.573Z,-0.35
2019-02-06T06:17:48.343Z,-0.34
2019-02-06T06:20:20.386Z,-0.32
2019-02-06T06:22:49.104Z,-0.30
2019-02-06T06:25:18.949Z,-0.37
2019-02-06T06:27:48.035Z,-0.33
2019-02-06T06:30:18.772Z,-0.31
2019-02-06T06:32:47.413Z,-0.43
2019-02-06T06:35:16.134Z,-0.39
2019-02-06T06:37:57.208Z,-0.21
2019-02-06T06:40:20.931Z,-0.21
2019-02-06T06:42:49.588Z,-0.16
2019-02-06T06:45:23.994Z,-0.22
2019-02-06T06:47:52.739Z,-0.41
2019-02-06T06:50:23.493Z,-0.32
2019-02-06T06:52:52.183Z,-0.34
2019-02-06T06:55:20.852Z,-0.12
2019-02-06T06:57:49.567Z,-0.23
2019-02-06T07:00:29.133Z,-0.25
2019-02-06T07:02:59.238Z,-0.33
2019-02-06T07:05:27.886Z,-0.41
2019-02-06T07:07:56.592Z,-0.39
2019-02-06T07:10:26.948Z,-0.29
2019-02-06T07:12:55.983Z,-0.31
2019-02-06T07:15:33.027Z,-0.39
2019-02-06T07:18:01.665Z,-0.43
2019-02-06T07:20:30.338Z,-0.22
2019-02-06T07:22:59.359Z,-0.16
2019-02-06T07:25:28.038Z,-0.18
2019-02-06T07:27:56.688Z,-0.10
2019-02-06T07:30:27.566Z,-0.10
2019-02-06T07:32:56.288Z,-0.14
2019-02-06T07:35:24.999Z,-0.10
2019-02-06T07:37:53.723Z,-0.10
2019-02-06T07:40:22.786Z,-0.16
2019-02-06T07:42:51.437Z,-0.19
2019-02-06T07:45:20.603Z,-0.11
2019-02-06T07:47:49.257Z,-0.05
2019-02-06T07:50:20.500Z,0.03
2019-02-06T07:52:49.138Z,0.10
2019-02-06T07:55:18.196Z,0.17
2019-02-06T07:57:46.847Z,0.12
2019-02-06T08:00:15.533Z,0.28
2019-02-06T08:02:44.192Z,0.26
2019-02-06T08:05:18.196Z,0.34
2019-02-06T08:07:46.831Z,0.51
2019-02-06T08:10:27.233Z,0.70
2019-02-06T08:12:55.863Z,0.59
2019-02-06T08:15:24.561Z,0.72
2019-02-06T08:17:53.511Z,0.82
2019-02-06T08:20:23.178Z,0.85
2019-02-06T08:22:52.232Z,1.21
2019-02-06T08:25:24.783Z,1.29
2019-02-06T08:27:53.426Z,1.22
2019-02-06T08:30:27.393Z,1.20
2019-02-06T08:32:56.041Z,1.12
2019-02-06T08:35:24.726Z,1.23
2019-02-06T08:37:53.649Z,1.38
2019-02-06T08:40:25.693Z,1.44
2019-02-06T08:42:54.336Z,1.58
2019-02-06T08:45:23.043Z,1.69
2019-02-06T08:47:51.908Z,1.70
2019-02-06T08:50:21.897Z,1.76
2019-02-06T08:52:50.960Z,1.88
2019-02-06T08:55:24.702Z,1.85
2019-02-06T08:57:52.783Z,1.88
2019-02-06T09:00:30.325Z,2.09
2019-02-06T09:02:58.966Z,2.09
2019-02-06T09:05:28.162Z,2.12
2019-02-06T09:07:56.897Z,2.14
2019-02-06T09:10:32.183Z,2.32
2019-02-06T09:13:01.009Z,2.39
2019-02-06T09:15:29.697Z,2.41
2019-02-06T09:17:58.387Z,2.54
2019-02-06T09:20:29.331Z,2.88
2019-02-06T09:22:58.068Z,4.02
2019-02-06T09:25:28.373Z,5.48
2019-02-06T09:27:57.400Z,5.56
2019-02-06T09:30:27.633Z,5.28
2019-02-06T09:32:56.792Z,4.91
2019-02-06T09:35:25.833Z,4.85
2019-02-06T09:37:54.515Z,4.82
2019-02-06T09:40:25.355Z,4.83
2019-02-06T09:42:54.214Z,4.61
2019-02-06T09:45:22.952Z,4.42
2019-02-06T09:47:51.715Z,4.44
2019-02-06T09:50:22.859Z,4.40
2019-02-06T09:52:51.652Z,4.57
2019-02-06T09:55:20.374Z,4.95
2019-02-06T09:57:49.012Z,5.20
2019-02-06T10:00:26.393Z,5.16
2019-02-06T10:02:55.120Z,4.87
2019-02-06T10:05:24.276Z,4.94
2019-02-06T10:07:52.932Z,5.18
2019-02-06T10:10:24.310Z,5.35
2019-02-06T10:12:52.952Z,5.41
2019-02-06T10:15:24.770Z,5.35
2019-02-06T10:17:53.930Z,5.34
2019-02-06T10:20:25.990Z,5.52
2019-02-06T10:22:54.760Z,5.81
2019-02-06T10:25:23.471Z,5.97
2019-02-06T10:27:52.154Z,5.91
2019-02-06T10:30:23.914Z,6.01
2019-02-06T10:32:52.712Z,6.36
2019-02-06T10:35:21.355Z,5.46
2019-02-06T10:37:50.073Z,5.52
2019-02-06T10:40:19.451Z,5.73
2019-02-06T10:42:48.114Z,5.95
2019-02-06T10:45:21.075Z,6.19
2019-02-06T10:47:49.517Z,5.99
2019-02-06T10:50:23.772Z,5.62
2019-02-06T10:52:52.493Z,5.46
2019-02-06T10:55:21.169Z,5.66
2019-02-06T10:57:49.914Z,5.80
2019-02-06T11:00:21.812Z,5.84
2019-02-06T11:02:50.592Z,5.84
2019-02-06T11:05:19.471Z,5.81
2019-02-06T11:07:48.134Z,5.79
2019-02-06T11:10:19.793Z,5.82
2019-02-06T11:12:48.511Z,6.05
2019-02-06T11:15:17.253Z,6.22
2019-02-06T11:17:45.912Z,6.34
2019-02-06T11:20:20.417Z,6.38
2019-02-06T11:22:49.132Z,6.39
2019-02-06T11:25:17.813Z,6.34
2019-02-06T11:30:44.773Z,6.10
2019-02-06T11:33:13.471Z,6.03
2019-02-06T11:35:42.153Z,5.90
2019-02-06T11:38:10.827Z,5.14
2019-02-06T11:40:39.591Z,5.14
2019-02-06T11:43:08.513Z,4.97
2019-02-06T11:45:37.392Z,4.51
2019-02-06T11:48:06.313Z,3.94
2019-02-06T11:50:37.450Z,3.56
2019-02-06T11:53:07.331Z,3.48
2019-02-06T11:55:36.033Z,3.45
2019-02-06T11:58:05.513Z,3.79
2019-02-06T12:00:52.112Z,4.09
2019-02-06T12:03:22.238Z,4.56
2019-02-06T12:05:51.152Z,4.89
2019-02-06T12:08:19.873Z,5.51
2019-02-06T12:10:48.794Z,4.65
2019-02-06T12:13:17.432Z,4.05
2019-02-06T12:15:46.124Z,3.95
2019-02-06T12:18:14.815Z,4.04
2019-02-06T12:20:43.531Z,4.10
2019-02-06T12:23:12.183Z,3.76
2019-02-06T12:25:40.913Z,3.64
2019-02-06T12:28:09.551Z,3.42
2019-02-06T12:30:41.915Z,3.30
2019-02-06T12:33:10.670Z,3.26
2019-02-06T12:35:39.312Z,3.39
2019-02-06T12:38:08.032Z,3.56
2019-02-06T12:40:36.770Z,3.53
2019-02-06T12:43:07.076Z,3.31
2019-02-06T12:45:37.311Z,3.27
2019-02-06T12:48:06.213Z,3.41
2019-02-06T12:50:34.933Z,3.60
2019-02-06T12:53:03.591Z,3.82
2019-02-06T12:55:34.992Z,3.95
2019-02-06T12:58:03.634Z,4.39
2019-02-06T13:00:37.433Z,4.61
2019-02-06T13:03:06.331Z,4.78
2019-02-06T13:05:35.030Z,4.38
2019-02-06T13:08:03.791Z,4.32
2019-02-06T13:10:34.264Z,4.81
2019-02-06T13:13:02.854Z,5.40
2019-02-06T13:15:32.012Z,5.34
2019-02-06T13:18:00.652Z,5.62
2019-02-06T13:20:36.536Z,6.64
2019-02-06T13:23:06.279Z,7.31
2019-02-06T13:25:35.036Z,7.26
2019-02-06T13:28:03.852Z,6.27
2019-02-06T13:30:36.014Z,5.70
2019-02-06T13:33:05.971Z,5.07
2019-02-06T13:35:34.672Z,4.76
2019-02-06T13:38:03.390Z,4.94
2019-02-06T13:40:32.161Z,5.96
2019-02-06T13:43:00.892Z,6.58
2019-02-06T13:45:41.852Z,6.81
2019-02-06T13:48:10.532Z,6.61
2019-02-06T13:50:39.332Z,7.02
2019-02-06T13:53:08.050Z,6.72
2019-02-06T13:55:36.792Z,7.00
2019-02-06T13:58:05.933Z,7.46
2019-02-06T14:00:39.561Z,7.09
2019-02-06T14:03:08.291Z,7.32
2019-02-06T14:05:37.050Z,7.24
2019-02-06T14:08:08.511Z,7.45
2019-02-06T14:10:37.152Z,7.34
2019-02-06T14:13:06.133Z,6.70
2019-02-06T14:15:37.431Z,6.68
2019-02-06T14:18:06.092Z,6.48
2019-02-06T14:20:34.758Z,6.16
2019-02-06T14:23:06.891Z,5.98
2019-02-06T14:25:41.831Z,5.86
2019-02-06T14:28:31.531Z,5.66
2019-02-06T14:31:09.252Z,5.82
2019-02-06T14:33:55.990Z,6.50
2019-02-06T14:36:36.633Z,6.57
2019-02-06T14:39:24.994Z,6.88
2019-02-06T14:42:19.361Z,6.79
2019-02-06T14:44:52.609Z,6.92
2019-02-06T14:47:27.373Z,6.36
2019-02-06T14:50:02.073Z,5.97
2019-02-06T14:52:36.591Z,5.38
2019-02-06T14:55:34.111Z,5.43
2019-02-06T14:58:05.872Z,5.60
2019-02-06T15:00:59.926Z,5.39
2019-02-06T15:03:47.025Z,4.93
2019-02-06T15:06:40.029Z,5.03
2019-02-06T15:09:14.959Z,4.97
2019-02-06T15:11:55.736Z,5.31
2019-02-06T15:14:30.529Z,5.25
2019-02-06T15:17:37.012Z,4.98
2019-02-06T15:20:14.792Z,4.95
2019-02-06T15:22:52.450Z,4.60
2019-02-06T15:25:36.312Z,3.80
2019-02-06T15:28:26.274Z,3.77
2019-02-06T15:31:29.671Z,3.27
2019-02-06T15:34:15.535Z,3.01
2019-02-06T15:36:52.731Z,2.79
2019-02-06T15:39:48.711Z,2.60
2019-02-06T15:42:26.411Z,2.39
2019-02-06T15:45:07.305Z,2.08
2019-02-06T15:47:45.375Z,1.97
2019-02-06T15:50:29.341Z,1.84
2019-02-06T15:53:02.091Z,1.67
2019-02-06T15:55:43.813Z,1.39
2019-02-06T15:58:27.711Z,1.19
2019-02-06T16:01:11.769Z,1.06
2019-02-06T16:04:04.551Z,0.94
2019-02-06T16:06:36.972Z,0.80
2019-02-06T16:09:14.751Z,0.62
2019-02-06T16:11:46.671Z,0.58
2019-02-06T16:14:24.371Z,0.60
2019-02-06T16:17:23.454Z,0.49
2019-02-06T16:20:17.272Z,0.42
2019-02-06T16:23:12.091Z,0.42
2019-02-06T16:26:06.690Z,0.47
2019-02-06T16:28:41.374Z,0.38
2019-02-06T16:31:22.492Z,0.24
2019-02-06T16:34:03.208Z,0.22
2019-02-06T16:36:50.351Z,0.30
2019-02-06T16:39:27.831Z,0.31
2019-02-06T16:42:05.532Z,0.22
2019-02-06T16:44:37.567Z,0.14
2019-02-06T16:47:21.351Z,0.13
2019-02-06T16:50:16.008Z,0.13
2019-02-06T16:53:04.410Z,0.13
2019-02-06T16:55:52.915Z,0.10
2019-02-06T16:58:30.651Z,0.09
2019-02-06T17:01:11.532Z,0.03
2019-02-06T17:03:58.332Z,0.05
2019-02-06T17:06:38.912Z,-0.02
2019-02-06T17:09:41.019Z,-0.06
2019-02-06T17:12:22.090Z,-0.09
2019-02-06T17:15:23.710Z,-0.09
2019-02-06T17:18:04.131Z,-0.10
2019-02-06T17:20:44.790Z,-0.11
2019-02-06T17:23:28.772Z,-0.13
2019-02-06T17:26:04.384Z,-0.21
2019-02-06T17:28:36.319Z,-0.20
2019-02-06T17:31:10.934Z,-0.25
2019-02-06T17:34:01.491Z,-0.28
2019-02-06T17:36:48.012Z,-0.26
2019-02-06T17:39:29.236Z,-0.33
2019-02-06T17:42:01.171Z,-0.38
2019-02-06T17:44:54.373Z,-0.34
2019-02-06T17:47:38.411Z,-0.41
2019-02-06T17:50:15.831Z,-0.43
2019-02-06T17:53:08.550Z,-0.39
2019-02-06T17:55:37.431Z,-0.45
2019-02-06T17:58:06.692Z,-0.46
2019-02-06T18:00:51.071Z,-0.51
2019-02-06T18:03:20.050Z,-0.56
2019-02-06T18:05:49.470Z,-0.54
2019-02-06T18:08:18.452Z,-0.53
2019-02-06T18:10:47.411Z,-0.57
2019-02-06T18:13:17.192Z,-0.63
2019-02-06T18:15:46.020Z,-0.61
2019-02-06T18:18:14.973Z,-0.61
2019-02-06T18:20:44.212Z,-0.63
2019-02-06T18:23:13.194Z,-0.60
2019-02-06T18:25:42.213Z,-0.62
2019-02-06T18:28:11.933Z,-0.66
2019-02-06T18:30:40.930Z,-0.64
2019-02-06T18:33:09.930Z,-0.58
2019-02-06T18:35:39.672Z,-0.56
2019-02-06T18:38:08.892Z,-0.56
2019-02-06T18:40:38.831Z,-0.63
2019-02-06T18:43:07.812Z,-0.57
2019-02-06T18:45:37.074Z,-0.65
2019-02-06T18:48:08.459Z,-0.63
2019-02-06T18:50:38.932Z,-0.73
2019-02-06T18:53:08.790Z,-0.75
2019-02-06T18:55:38.368Z,-0.73
2019-02-06T18:58:08.592Z,-0.70
2019-02-06T19:00:39.767Z,-0.65
2019-02-06T19:03:26.522Z,-0.61
2019-02-06T19:05:54.259Z,-0.73
2019-02-06T19:08:23.384Z,-0.86
2019-02-06T19:10:54.131Z,-0.86
2019-02-06T19:13:23.154Z,-0.87
2019-02-06T19:15:56.512Z,-0.93
2019-02-06T19:18:23.611Z,-0.99
2019-02-06T19:20:52.547Z,-1.02
2019-02-06T19:23:21.410Z,-1.12
2019-02-06T19:25:50.451Z,-1.12
2019-02-06T19:28:19.651Z,-1.17
2019-02-06T19:30:48.456Z,-1.24
2019-02-06T19:33:17.574Z,-1.25
2019-02-06T19:35:46.551Z,-1.36
2019-02-06T19:38:17.184Z,-1.33
2019-02-06T19:40:46.269Z,-1.37
2019-02-06T19:43:15.433Z,-1.28
2019-02-06T19:45:44.531Z,-1.28
2019-02-06T19:48:16.203Z,-1.33
2019-02-06T19:50:46.463Z,-1.40
2019-02-06T19:53:15.635Z,-1.38
2019-02-06T19:55:44.813Z,-1.43
2019-02-06T19:58:13.934Z,-1.50
2019-02-06T20:00:43.014Z,-1.46
2019-02-06T20:03:12.352Z,-1.47
2019-02-06T20:05:41.352Z,-1.50
2019-02-06T20:08:10.492Z,-1.55
2019-02-06T20:10:48.430Z,-1.50
2019-02-06T20:13:17.571Z,-1.55
2019-02-06T20:15:46.772Z,-1.39
2019-02-06T20:18:16.194Z,-1.53
2019-02-06T20:20:45.191Z,-1.40
2019-02-06T20:23:14.104Z,-1.40
2019-02-06T20:25:43.024Z,-1.36
2019-02-06T20:28:11.973Z,-1.46
2019-02-06T20:30:41.075Z,-1.39
2019-02-06T20:33:10.191Z,-1.41
2019-02-06T20:35:39.395Z,-1.47
2019-02-06T20:38:08.332Z,-1.53
2019-02-06T20:40:42.873Z,-1.49
2019-02-06T20:43:21.855Z,-1.45
2019-02-06T20:45:43.190Z,-1.52
2019-02-06T20:48:12.390Z,-1.54
2019-02-06T20:50:41.947Z,-1.71
2019-02-06T20:53:11.305Z,-1.62
2019-02-06T20:55:40.494Z,-1.69
2019-02-06T20:58:09.606Z,-1.76
2019-02-06T21:00:40.552Z,-1.78
2019-02-06T21:03:09.530Z,-1.72
2019-02-06T21:05:38.653Z,-1.74
2019-02-06T21:08:07.515Z,-1.88
2019-02-06T21:10:36.992Z,-1.92
2019-02-06T21:13:06.572Z,-1.79
2019-02-06T21:15:35.692Z,-1.84
2019-02-06T21:18:04.626Z,-1.84
2019-02-06T21:20:33.614Z,-1.90
2019-02-06T21:23:02.801Z,-1.94
2019-02-06T21:25:31.812Z,-1.92
2019-02-06T21:28:00.550Z,-1.89
2019-02-06T21:30:35.051Z,-1.99
2019-02-06T21:33:03.932Z,-2.05
2019-02-06T21:35:32.911Z,-2.06
2019-02-06T21:38:01.874Z,-2.14
2019-02-06T21:40:37.693Z,-2.09
2019-02-06T21:43:07.360Z,-2.20
2019-02-06T21:45:36.094Z,-2.19
2019-02-06T21:48:05.577Z,-2.28
2019-02-06T21:50:34.450Z,-2.25
2019-02-06T21:53:03.437Z,-2.37
2019-02-06T21:55:32.472Z,-2.43
2019-02-06T21:58:01.351Z,-2.39
2019-02-06T22:00:38.671Z,-2.43
2019-02-06T22:03:10.543Z,-2.39
2019-02-06T22:05:38.233Z,-2.42
2019-02-06T22:08:07.153Z,-2.52
2019-02-06T22:10:35.894Z,-2.40
2019-02-06T22:13:04.853Z,-2.48
2019-02-06T22:15:33.716Z,-2.52
2019-02-06T22:18:02.472Z,-2.59
2019-02-06T22:20:31.253Z,-2.56
2019-02-06T22:22:59.990Z,-2.59
2019-02-06T22:25:28.772Z,-2.63
2019-02-06T22:27:57.499Z,-2.63
2019-02-06T22:30:28.878Z,-2.72
2019-02-06T22:32:57.551Z,-2.65
2019-02-06T22:35:26.511Z,-2.72
2019-02-06T22:37:55.232Z,-2.67
2019-02-06T22:40:26.531Z,-2.68
2019-02-06T22:42:55.272Z,-2.81
2019-02-06T22:45:25.810Z,-2.88
2019-02-06T22:47:54.572Z,-2.91
2019-02-06T22:50:25.971Z,-2.97
2019-02-06T22:52:54.752Z,-2.92
2019-02-06T22:55:23.430Z,-2.94
2019-02-06T22:57:52.190Z,-3.02
2019-02-06T23:00:43.533Z,-3.01
2019-02-06T23:03:12.312Z,-3.16
2019-02-06T23:05:41.010Z,-3.19
2019-02-06T23:08:09.732Z,-3.17
2019-02-06T23:10:38.459Z,-3.25
2019-02-06T23:13:07.630Z,-3.12
2019-02-06T23:15:36.791Z,-3.23
2019-02-06T23:18:05.650Z,-3.22
2019-02-06T23:20:34.374Z,-3.24
2019-02-06T23:23:03.131Z,-3.22
2019-02-06T23:25:31.891Z,-3.26
2019-02-06T23:28:00.535Z,-3.28
2019-02-06T23:30:29.692Z,-3.25
2019-02-06T23:32:58.392Z,-3.42
2019-02-06T23:35:27.097Z,-3.35
2019-02-06T23:37:55.854Z,-3.36
2019-02-06T23:40:24.533Z,-3.43
2019-02-06T23:42:53.311Z,-3.44
2019-02-06T23:45:22.432Z,-3.45
2019-02-06T23:47:51.133Z,-3.46
2019-02-06T23:50:19.779Z,-3.45
2019-02-06T23:52:48.533Z,-3.43
2019-02-06T23:55:17.272Z,-3.44
2019-02-06T23:57:45.994Z,-3.49
